sensor_id;sensor_type;location;lat;lon;timestamp;temperature;humidity
4677;DHT22;2352;48.180;11.478;2023-09-19T00:01:28;18.80;99.90
4677;DHT22;2352;48.180;11.478;2023-09-19T00:04:33;19.00;99.90
4677;DHT22;2352;48.180;11.478;2023-09-19T00:07:36;18.90;99.90
4677;DHT22;2352;48.180;11.478;2023-09-19T00:10:40;19.00;99.90
4677;DHT22;2352;48.180;11.478;2023-09-19T00:13:47;18.90;99.90
4677;DHT22;2352;48.180;11.478;2023-09-19T00:16:51;19.00;99.90
4677;DHT22;2352;48.180;11.478;2023-09-19T00:19:56;19.10;99.90
4677;DHT22;2352;48.180;11.478;2023-09-19T00:22:59;19.00;99.90
4677;DHT22;2352;48.180;11.478;2023-09-19T00:26:10;18.90;99.90
4677;DHT22;2352;48.180;11.478;2023-09-19T00:29:14;18.90;99.90
4677;DHT22;2352;48.180;11.478;2023-09-19T00:32:18;18.80;99.90
4677;DHT22;2352;48.180;11.478;2023-09-19T00:35:21;18.80;99.90
4677;DHT22;2352;48.180;11.478;2023-09-19T00:38:25;18.90;99.90
4677;DHT22;2352;48.180;11.478;2023-09-19T00:41:29;18.80;99.90
4677;DHT22;2352;48.180;11.478;2023-09-19T00:44:33;18.80;99.90
4677;DHT22;2352;48.180;11.478;2023-09-19T00:47:39;18.80;99.90
4677;DHT22;2352;48.180;11.478;2023-09-19T00:50:46;18.80;99.90
4677;DHT22;2352;48.180;11.478;2023-09-19T00:53:49;18.90;99.90
4677;DHT22;2352;48.180;11.478;2023-09-19T00:56:52;18.40;99.90
4677;DHT22;2352;48.180;11.478;2023-09-19T00:59:57;18.90;99.90
4677;DHT22;2352;48.180;11.478;2023-09-19T01:03:01;18.90;99.90
4677;DHT22;2352;48.180;11.478;2023-09-19T01:06:04;18.90;99.90
4677;DHT22;2352;48.180;11.478;2023-09-19T01:09:09;19.00;99.90
4677;DHT22;2352;48.180;11.478;2023-09-19T01:12:16;19.10;99.90
4677;DHT22;2352;48.180;11.478;2023-09-19T01:15:35;19.00;99.90
4677;DHT22;2352;48.180;11.478;2023-09-19T01:18:48;19.00;99.90
4677;DHT22;2352;48.180;11.478;2023-09-19T01:21:59;19.10;99.90
4677;DHT22;2352;48.180;11.478;2023-09-19T01:25:30;19.10;99.90
4677;DHT22;2352;48.180;11.478;2023-09-19T01:29:01;19.00;99.90
4677;DHT22;2352;48.180;11.478;2023-09-19T01:32:16;18.90;99.90
4677;DHT22;2352;48.180;11.478;2023-09-19T01:35:23;18.80;99.90
4677;DHT22;2352;48.180;11.478;2023-09-19T01:38:26;18.80;99.90
4677;DHT22;2352;48.180;11.478;2023-09-19T01:41:52;18.70;99.90
4677;DHT22;2352;48.180;11.478;2023-09-19T01:45:02;18.70;99.90
4677;DHT22;2352;48.180;11.478;2023-09-19T01:48:16;18.70;99.90
4677;DHT22;2352;48.180;11.478;2023-09-19T01:51:32;18.80;99.90
4677;DHT22;2352;48.180;11.478;2023-09-19T01:54:41;18.60;99.90
4677;DHT22;2352;48.180;11.478;2023-09-19T01:57:52;18.70;99.90
4677;DHT22;2352;48.180;11.478;2023-09-19T02:00:58;18.90;99.90
4677;DHT22;2352;48.180;11.478;2023-09-19T02:04:04;18.80;99.90
4677;DHT22;2352;48.180;11.478;2023-09-19T02:07:08;18.80;99.90
4677;DHT22;2352;48.180;11.478;2023-09-19T02:10:11;18.90;99.90
4677;DHT22;2352;48.180;11.478;2023-09-19T02:13:14;18.90;99.90
4677;DHT22;2352;48.180;11.478;2023-09-19T02:16:18;18.90;99.90
4677;DHT22;2352;48.180;11.478;2023-09-19T02:19:23;18.80;99.90
4677;DHT22;2352;48.180;11.478;2023-09-19T02:22:27;18.80;99.90
4677;DHT22;2352;48.180;11.478;2023-09-19T02:25:31;18.80;99.90
4677;DHT22;2352;48.180;11.478;2023-09-19T02:28:34;18.90;99.90
4677;DHT22;2352;48.180;11.478;2023-09-19T02:31:37;18.80;99.90
4677;DHT22;2352;48.180;11.478;2023-09-19T02:34:42;18.80;99.90
4677;DHT22;2352;48.180;11.478;2023-09-19T02:37:46;18.80;99.90
4677;DHT22;2352;48.180;11.478;2023-09-19T02:40:49;18.80;99.90
4677;DHT22;2352;48.180;11.478;2023-09-19T02:43:52;18.70;99.90
4677;DHT22;2352;48.180;11.478;2023-09-19T02:46:56;18.70;99.90
4677;DHT22;2352;48.180;11.478;2023-09-19T02:50:00;18.70;99.90
4677;DHT22;2352;48.180;11.478;2023-09-19T02:53:03;18.60;99.90
4677;DHT22;2352;48.180;11.478;2023-09-19T02:56:07;18.60;99.90
4677;DHT22;2352;48.180;11.478;2023-09-19T02:59:11;18.70;99.90
4677;DHT22;2352;48.180;11.478;2023-09-19T03:02:14;18.70;99.90
4677;DHT22;2352;48.180;11.478;2023-09-19T03:05:19;18.70;99.90
4677;DHT22;2352;48.180;11.478;2023-09-19T03:08:22;18.80;99.90
4677;DHT22;2352;48.180;11.478;2023-09-19T03:11:26;18.80;99.90
4677;DHT22;2352;48.180;11.478;2023-09-19T03:14:29;18.70;99.90
4677;DHT22;2352;48.180;11.478;2023-09-19T03:17:37;18.70;99.90
4677;DHT22;2352;48.180;11.478;2023-09-19T03:20:41;18.60;99.90
4677;DHT22;2352;48.180;11.478;2023-09-19T03:23:45;18.70;99.90
4677;DHT22;2352;48.180;11.478;2023-09-19T03:26:48;18.60;99.90
4677;DHT22;2352;48.180;11.478;2023-09-19T03:29:51;18.60;99.90
4677;DHT22;2352;48.180;11.478;2023-09-19T03:32:54;18.50;99.90
4677;DHT22;2352;48.180;11.478;2023-09-19T03:36:00;18.60;99.90
4677;DHT22;2352;48.180;11.478;2023-09-19T03:39:06;18.50;99.90
4677;DHT22;2352;48.180;11.478;2023-09-19T03:42:09;18.60;99.90
4677;DHT22;2352;48.180;11.478;2023-09-19T03:45:12;18.60;99.90
4677;DHT22;2352;48.180;11.478;2023-09-19T03:48:17;18.60;99.90
4677;DHT22;2352;48.180;11.478;2023-09-19T03:51:22;18.60;99.90
4677;DHT22;2352;48.180;11.478;2023-09-19T03:54:25;18.60;99.90
4677;DHT22;2352;48.180;11.478;2023-09-19T03:57:28;18.70;99.90
4677;DHT22;2352;48.180;11.478;2023-09-19T04:00:32;18.80;99.90
4677;DHT22;2352;48.180;11.478;2023-09-19T04:03:40;18.70;99.90
4677;DHT22;2352;48.180;11.478;2023-09-19T04:06:50;18.70;99.90
4677;DHT22;2352;48.180;11.478;2023-09-19T04:09:53;18.70;99.90
4677;DHT22;2352;48.180;11.478;2023-09-19T04:12:57;18.60;99.90
4677;DHT22;2352;48.180;11.478;2023-09-19T04:15:59;18.70;99.90
4677;DHT22;2352;48.180;11.478;2023-09-19T04:19:02;18.70;99.90
4677;DHT22;2352;48.180;11.478;2023-09-19T04:22:08;18.50;99.90
4677;DHT22;2352;48.180;11.478;2023-09-19T04:25:11;18.60;99.90
4677;DHT22;2352;48.180;11.478;2023-09-19T04:28:14;18.60;99.90
4677;DHT22;2352;48.180;11.478;2023-09-19T04:31:17;18.40;99.90
4677;DHT22;2352;48.180;11.478;2023-09-19T04:34:21;18.50;99.90
4677;DHT22;2352;48.180;11.478;2023-09-19T04:37:27;18.70;99.90
4677;DHT22;2352;48.180;11.478;2023-09-19T04:40:30;18.50;99.90
4677;DHT22;2352;48.180;11.478;2023-09-19T04:43:34;18.50;99.90
4677;DHT22;2352;48.180;11.478;2023-09-19T04:46:37;18.50;99.90
4677;DHT22;2352;48.180;11.478;2023-09-19T04:49:41;18.50;99.90
4677;DHT22;2352;48.180;11.478;2023-09-19T04:52:45;18.30;99.90
4677;DHT22;2352;48.180;11.478;2023-09-19T04:55:52;18.20;99.90
4677;DHT22;2352;48.180;11.478;2023-09-19T04:58:57;18.40;99.90
4677;DHT22;2352;48.180;11.478;2023-09-19T05:02:00;18.30;99.90
4677;DHT22;2352;48.180;11.478;2023-09-19T05:05:04;18.20;99.90
4677;DHT22;2352;48.180;11.478;2023-09-19T05:08:08;18.40;99.90
4677;DHT22;2352;48.180;11.478;2023-09-19T05:11:11;18.40;99.90
4677;DHT22;2352;48.180;11.478;2023-09-19T05:14:14;18.50;99.90
4677;DHT22;2352;48.180;11.478;2023-09-19T05:17:17;18.50;99.90
4677;DHT22;2352;48.180;11.478;2023-09-19T05:20:21;18.50;99.90
4677;DHT22;2352;48.180;11.478;2023-09-19T05:23:33;18.50;99.90
4677;DHT22;2352;48.180;11.478;2023-09-19T05:26:36;18.50;99.90
4677;DHT22;2352;48.180;11.478;2023-09-19T05:29:39;18.50;99.90
4677;DHT22;2352;48.180;11.478;2023-09-19T05:32:43;18.50;99.90
4677;DHT22;2352;48.180;11.478;2023-09-19T05:35:48;18.50;99.90
4677;DHT22;2352;48.180;11.478;2023-09-19T05:38:52;18.30;99.90
4677;DHT22;2352;48.180;11.478;2023-09-19T05:41:55;18.30;99.90
4677;DHT22;2352;48.180;11.478;2023-09-19T05:44:59;18.30;99.90
4677;DHT22;2352;48.180;11.478;2023-09-19T05:48:08;18.30;99.90
4677;DHT22;2352;48.180;11.478;2023-09-19T05:51:11;18.40;99.90
4677;DHT22;2352;48.180;11.478;2023-09-19T05:54:15;18.20;99.90
4677;DHT22;2352;48.180;11.478;2023-09-19T05:57:20;18.10;99.90
4677;DHT22;2352;48.180;11.478;2023-09-19T06:00:24;18.40;99.90
4677;DHT22;2352;48.180;11.478;2023-09-19T06:03:29;18.50;99.90
4677;DHT22;2352;48.180;11.478;2023-09-19T06:06:33;18.70;99.90
4677;DHT22;2352;48.180;11.478;2023-09-19T06:09:42;18.60;99.90
4677;DHT22;2352;48.180;11.478;2023-09-19T06:12:44;18.40;99.90
4677;DHT22;2352;48.180;11.478;2023-09-19T06:15:48;18.50;99.90
4677;DHT22;2352;48.180;11.478;2023-09-19T06:18:51;18.50;99.90
4677;DHT22;2352;48.180;11.478;2023-09-19T06:21:54;18.70;99.90
4677;DHT22;2352;48.180;11.478;2023-09-19T06:25:00;18.60;99.90
4677;DHT22;2352;48.180;11.478;2023-09-19T06:28:09;18.50;99.90
4677;DHT22;2352;48.180;11.478;2023-09-19T06:31:14;18.80;99.90
4677;DHT22;2352;48.180;11.478;2023-09-19T06:34:17;18.70;99.90
4677;DHT22;2352;48.180;11.478;2023-09-19T06:37:20;18.60;99.90
4677;DHT22;2352;48.180;11.478;2023-09-19T06:40:25;18.50;99.90
4677;DHT22;2352;48.180;11.478;2023-09-19T06:43:30;18.50;99.90
4677;DHT22;2352;48.180;11.478;2023-09-19T06:46:34;18.40;99.90
4677;DHT22;2352;48.180;11.478;2023-09-19T06:49:40;18.40;99.90
4677;DHT22;2352;48.180;11.478;2023-09-19T06:52:46;18.40;99.90
4677;DHT22;2352;48.180;11.478;2023-09-19T06:55:53;18.70;99.90
4677;DHT22;2352;48.180;11.478;2023-09-19T06:58:56;18.70;99.90
4677;DHT22;2352;48.180;11.478;2023-09-19T07:01:59;18.90;99.90
4677;DHT22;2352;48.180;11.478;2023-09-19T07:05:03;18.80;99.90
4677;DHT22;2352;48.180;11.478;2023-09-19T07:08:08;18.70;99.90
4677;DHT22;2352;48.180;11.478;2023-09-19T07:11:15;18.80;99.90
4677;DHT22;2352;48.180;11.478;2023-09-19T07:14:18;19.10;99.90
4677;DHT22;2352;48.180;11.478;2023-09-19T07:17:21;19.20;99.90
4677;DHT22;2352;48.180;11.478;2023-09-19T07:20:25;19.10;99.90
4677;DHT22;2352;48.180;11.478;2023-09-19T07:23:29;19.30;99.90
4677;DHT22;2352;48.180;11.478;2023-09-19T07:26:37;19.10;99.90
4677;DHT22;2352;48.180;11.478;2023-09-19T07:29:41;19.20;99.90
4677;DHT22;2352;48.180;11.478;2023-09-19T07:32:44;19.00;99.90
4677;DHT22;2352;48.180;11.478;2023-09-19T07:35:47;19.10;99.90
4677;DHT22;2352;48.180;11.478;2023-09-19T07:38:50;19.50;99.90
4677;DHT22;2352;48.180;11.478;2023-09-19T07:41:55;19.50;99.90
4677;DHT22;2352;48.180;11.478;2023-09-19T07:44:58;19.40;99.90
4677;DHT22;2352;48.180;11.478;2023-09-19T07:48:02;19.40;99.90
4677;DHT22;2352;48.180;11.478;2023-09-19T07:51:25;19.60;99.90
4677;DHT22;2352;48.180;11.478;2023-09-19T07:54:28;19.80;99.90
4677;DHT22;2352;48.180;11.478;2023-09-19T07:57:38;19.70;99.90
4677;DHT22;2352;48.180;11.478;2023-09-19T08:00:42;19.90;99.90
4677;DHT22;2352;48.180;11.478;2023-09-19T08:03:46;19.70;99.90
4677;DHT22;2352;48.180;11.478;2023-09-19T08:06:50;19.80;99.90
4677;DHT22;2352;48.180;11.478;2023-09-19T08:09:53;19.90;99.90
4677;DHT22;2352;48.180;11.478;2023-09-19T08:12:58;19.40;99.90
4677;DHT22;2352;48.180;11.478;2023-09-19T08:16:01;19.60;99.90
4677;DHT22;2352;48.180;11.478;2023-09-19T08:19:05;19.80;99.90
4677;DHT22;2352;48.180;11.478;2023-09-19T08:22:08;19.90;99.90
4677;DHT22;2352;48.180;11.478;2023-09-19T08:25:13;20.00;99.90
4677;DHT22;2352;48.180;11.478;2023-09-19T08:28:17;20.10;99.90
4677;DHT22;2352;48.180;11.478;2023-09-19T08:31:26;20.20;99.90
4677;DHT22;2352;48.180;11.478;2023-09-19T08:34:29;20.40;99.90
4677;DHT22;2352;48.180;11.478;2023-09-19T08:37:33;20.40;99.90
4677;DHT22;2352;48.180;11.478;2023-09-19T08:40:37;20.40;99.90
4677;DHT22;2352;48.180;11.478;2023-09-19T08:43:43;20.80;99.90
4677;DHT22;2352;48.180;11.478;2023-09-19T08:46:49;20.50;99.90
4677;DHT22;2352;48.180;11.478;2023-09-19T08:49:59;20.60;99.90
4677;DHT22;2352;48.180;11.478;2023-09-19T08:53:09;20.90;99.90
4677;DHT22;2352;48.180;11.478;2023-09-19T08:56:14;20.80;99.90
4677;DHT22;2352;48.180;11.478;2023-09-19T08:59:22;20.90;99.90
4677;DHT22;2352;48.180;11.478;2023-09-19T09:02:28;20.90;99.90
4677;DHT22;2352;48.180;11.478;2023-09-19T09:05:32;20.60;99.90
4677;DHT22;2352;48.180;11.478;2023-09-19T09:08:38;20.60;99.90
4677;DHT22;2352;48.180;11.478;2023-09-19T09:11:42;21.30;99.90
4677;DHT22;2352;48.180;11.478;2023-09-19T09:14:46;21.10;99.90
4677;DHT22;2352;48.180;11.478;2023-09-19T09:17:51;21.00;99.90
4677;DHT22;2352;48.180;11.478;2023-09-19T09:20:55;21.40;99.90
4677;DHT22;2352;48.180;11.478;2023-09-19T09:23:58;21.60;99.10
4677;DHT22;2352;48.180;11.478;2023-09-19T09:27:03;21.50;98.30
4677;DHT22;2352;48.180;11.478;2023-09-19T09:30:33;21.30;98.70
4677;DHT22;2352;48.180;11.478;2023-09-19T09:33:36;21.10;98.70
4677;DHT22;2352;48.180;11.478;2023-09-19T09:36:40;21.00;99.60
4677;DHT22;2352;48.180;11.478;2023-09-19T09:39:50;21.30;98.90
4677;DHT22;2352;48.180;11.478;2023-09-19T09:42:55;21.50;99.40
4677;DHT22;2352;48.180;11.478;2023-09-19T09:46:17;21.70;97.50
4677;DHT22;2352;48.180;11.478;2023-09-19T09:49:38;22.10;97.50
4677;DHT22;2352;48.180;11.478;2023-09-19T09:52:47;21.90;96.60
4677;DHT22;2352;48.180;11.478;2023-09-19T09:56:04;22.30;96.50
4677;DHT22;2352;48.180;11.478;2023-09-19T09:59:11;23.00;96.80
4677;DHT22;2352;48.180;11.478;2023-09-19T10:02:24;23.10;95.40
4677;DHT22;2352;48.180;11.478;2023-09-19T10:05:33;23.00;94.80
4677;DHT22;2352;48.180;11.478;2023-09-19T10:08:57;23.30;94.70
4677;DHT22;2352;48.180;11.478;2023-09-19T10:12:07;23.20;93.40
4677;DHT22;2352;48.180;11.478;2023-09-19T10:15:15;22.80;93.70
4677;DHT22;2352;48.180;11.478;2023-09-19T10:18:21;22.20;93.60
4677;DHT22;2352;48.180;11.478;2023-09-19T10:21:24;22.30;94.70
4677;DHT22;2352;48.180;11.478;2023-09-19T10:24:33;22.80;94.20
4677;DHT22;2352;48.180;11.478;2023-09-19T10:27:50;22.90;94.90
4677;DHT22;2352;48.180;11.478;2023-09-19T10:30:56;22.40;93.20
4677;DHT22;2352;48.180;11.478;2023-09-19T10:34:03;23.20;94.00
4677;DHT22;2352;48.180;11.478;2023-09-19T10:37:07;23.60;93.60
4677;DHT22;2352;48.180;11.478;2023-09-19T10:40:14;23.20;92.10
4677;DHT22;2352;48.180;11.478;2023-09-19T10:43:19;23.20;93.70
4677;DHT22;2352;48.180;11.478;2023-09-19T10:46:23;23.60;92.50
4677;DHT22;2352;48.180;11.478;2023-09-19T10:49:28;23.40;91.90
4677;DHT22;2352;48.180;11.478;2023-09-19T10:52:34;23.60;93.00
4677;DHT22;2352;48.180;11.478;2023-09-19T10:55:49;24.00;91.90
4677;DHT22;2352;48.180;11.478;2023-09-19T10:59:05;24.30;91.30
4677;DHT22;2352;48.180;11.478;2023-09-19T11:02:18;24.50;91.10
4677;DHT22;2352;48.180;11.478;2023-09-19T11:05:23;24.60;90.00
4677;DHT22;2352;48.180;11.478;2023-09-19T11:08:26;24.50;88.10
4677;DHT22;2352;48.180;11.478;2023-09-19T11:11:43;24.80;90.30
4677;DHT22;2352;48.180;11.478;2023-09-19T11:14:48;24.70;85.60
4677;DHT22;2352;48.180;11.478;2023-09-19T11:17:51;24.20;87.20
4677;DHT22;2352;48.180;11.478;2023-09-19T11:24:47;24.90;86.90
4677;DHT22;2352;48.180;11.478;2023-09-19T11:28:27;24.60;83.20
4677;DHT22;2352;48.180;11.478;2023-09-19T11:31:50;24.60;84.60
4677;DHT22;2352;48.180;11.478;2023-09-19T11:35:07;24.80;82.70
4677;DHT22;2352;48.180;11.478;2023-09-19T11:38:11;25.10;79.90
4677;DHT22;2352;48.180;11.478;2023-09-19T11:41:37;25.20;79.60
4677;DHT22;2352;48.180;11.478;2023-09-19T11:44:41;25.40;79.10
4677;DHT22;2352;48.180;11.478;2023-09-19T11:47:45;25.20;82.00
4677;DHT22;2352;48.180;11.478;2023-09-19T11:50:49;24.70;78.90
4677;DHT22;2352;48.180;11.478;2023-09-19T11:53:53;24.50;80.70
4677;DHT22;2352;48.180;11.478;2023-09-19T11:56:59;24.40;86.10
4677;DHT22;2352;48.180;11.478;2023-09-19T12:00:03;23.80;83.90
4677;DHT22;2352;48.180;11.478;2023-09-19T12:03:11;24.00;87.70
4677;DHT22;2352;48.180;11.478;2023-09-19T12:06:16;24.00;84.00
4677;DHT22;2352;48.180;11.478;2023-09-19T12:09:19;24.40;86.00
4677;DHT22;2352;48.180;11.478;2023-09-19T12:12:26;24.60;84.60
4677;DHT22;2352;48.180;11.478;2023-09-19T12:15:29;25.00;83.10
4677;DHT22;2352;48.180;11.478;2023-09-19T12:18:36;25.10;83.20
4677;DHT22;2352;48.180;11.478;2023-09-19T12:21:40;25.50;83.90
4677;DHT22;2352;48.180;11.478;2023-09-19T12:24:43;25.70;82.90
4677;DHT22;2352;48.180;11.478;2023-09-19T12:27:49;25.80;81.10
4677;DHT22;2352;48.180;11.478;2023-09-19T12:30:55;26.30;79.40
4677;DHT22;2352;48.180;11.478;2023-09-19T12:34:00;26.20;76.90
4677;DHT22;2352;48.180;11.478;2023-09-19T12:37:04;26.50;76.80
4677;DHT22;2352;48.180;11.478;2023-09-19T12:40:13;26.40;75.50
4677;DHT22;2352;48.180;11.478;2023-09-19T12:43:20;25.70;76.60
4677;DHT22;2352;48.180;11.478;2023-09-19T12:46:23;25.20;78.50
4677;DHT22;2352;48.180;11.478;2023-09-19T12:49:28;24.90;83.20
4677;DHT22;2352;48.180;11.478;2023-09-19T12:52:35;24.30;84.10
4677;DHT22;2352;48.180;11.478;2023-09-19T12:55:39;24.20;85.60
4677;DHT22;2352;48.180;11.478;2023-09-19T12:58:53;23.90;88.40
4677;DHT22;2352;48.180;11.478;2023-09-19T13:02:03;24.70;89.70
4677;DHT22;2352;48.180;11.478;2023-09-19T13:05:07;24.90;85.40
4677;DHT22;2352;48.180;11.478;2023-09-19T13:08:18;24.50;87.20
4677;DHT22;2352;48.180;11.478;2023-09-19T13:11:22;25.20;87.00
4677;DHT22;2352;48.180;11.478;2023-09-19T13:14:27;25.70;86.20
4677;DHT22;2352;48.180;11.478;2023-09-19T13:17:42;26.00;82.80
4677;DHT22;2352;48.180;11.478;2023-09-19T13:21:05;26.60;84.50
4677;DHT22;2352;48.180;11.478;2023-09-19T13:24:19;27.10;78.50
4677;DHT22;2352;48.180;11.478;2023-09-19T13:27:22;26.80;78.70
4677;DHT22;2352;48.180;11.478;2023-09-19T13:30:27;27.10;77.60
4677;DHT22;2352;48.180;11.478;2023-09-19T13:33:32;27.00;77.90
4677;DHT22;2352;48.180;11.478;2023-09-19T13:36:35;26.90;77.40
4677;DHT22;2352;48.180;11.478;2023-09-19T13:39:39;26.40;76.40
4677;DHT22;2352;48.180;11.478;2023-09-19T13:42:49;26.40;81.20
4677;DHT22;2352;48.180;11.478;2023-09-19T13:45:57;27.00;78.00
4677;DHT22;2352;48.180;11.478;2023-09-19T13:49:00;26.90;78.20
4677;DHT22;2352;48.180;11.478;2023-09-19T13:52:05;26.20;80.30
4677;DHT22;2352;48.180;11.478;2023-09-19T13:55:09;25.70;81.90
4677;DHT22;2352;48.180;11.478;2023-09-19T13:58:12;25.50;84.20
4677;DHT22;2352;48.180;11.478;2023-09-19T14:01:16;25.20;86.20
4677;DHT22;2352;48.180;11.478;2023-09-19T14:04:19;25.20;83.40
4677;DHT22;2352;48.180;11.478;2023-09-19T14:07:23;25.10;84.80
4677;DHT22;2352;48.180;11.478;2023-09-19T14:10:27;25.00;83.80
4677;DHT22;2352;48.180;11.478;2023-09-19T14:13:31;25.10;82.80
4677;DHT22;2352;48.180;11.478;2023-09-19T14:16:36;24.80;85.00
4677;DHT22;2352;48.180;11.478;2023-09-19T14:19:41;25.20;83.00
4677;DHT22;2352;48.180;11.478;2023-09-19T14:22:47;25.30;82.30
4677;DHT22;2352;48.180;11.478;2023-09-19T14:25:50;25.70;83.00
4677;DHT22;2352;48.180;11.478;2023-09-19T14:28:55;26.20;83.20
4677;DHT22;2352;48.180;11.478;2023-09-19T14:32:03;26.20;80.70
4677;DHT22;2352;48.180;11.478;2023-09-19T14:35:07;26.30;82.10
4677;DHT22;2352;48.180;11.478;2023-09-19T14:38:11;26.00;77.00
4677;DHT22;2352;48.180;11.478;2023-09-19T14:41:14;25.50;77.80
4677;DHT22;2352;48.180;11.478;2023-09-19T14:44:17;25.70;78.40
4677;DHT22;2352;48.180;11.478;2023-09-19T14:47:22;25.40;78.20
4677;DHT22;2352;48.180;11.478;2023-09-19T14:50:26;25.10;81.30
4677;DHT22;2352;48.180;11.478;2023-09-19T14:53:28;25.30;79.70
4677;DHT22;2352;48.180;11.478;2023-09-19T14:56:32;25.50;79.80
4677;DHT22;2352;48.180;11.478;2023-09-19T14:59:35;25.40;78.90
4677;DHT22;2352;48.180;11.478;2023-09-19T15:02:40;25.10;80.30
4677;DHT22;2352;48.180;11.478;2023-09-19T15:05:43;25.10;81.00
4677;DHT22;2352;48.180;11.478;2023-09-19T15:08:48;25.20;80.60
4677;DHT22;2352;48.180;11.478;2023-09-19T15:11:52;25.10;83.70
4677;DHT22;2352;48.180;11.478;2023-09-19T15:14:55;25.00;81.00
4677;DHT22;2352;48.180;11.478;2023-09-19T15:17:59;24.90;79.40
4677;DHT22;2352;48.180;11.478;2023-09-19T15:21:03;24.60;81.80
4677;DHT22;2352;48.180;11.478;2023-09-19T15:24:07;24.80;82.20
4677;DHT22;2352;48.180;11.478;2023-09-19T15:27:11;24.80;81.90
4677;DHT22;2352;48.180;11.478;2023-09-19T15:30:14;24.80;82.70
4677;DHT22;2352;48.180;11.478;2023-09-19T15:33:19;24.70;81.70
4677;DHT22;2352;48.180;11.478;2023-09-19T15:36:22;24.40;80.80
4677;DHT22;2352;48.180;11.478;2023-09-19T15:39:25;24.50;82.50
4677;DHT22;2352;48.180;11.478;2023-09-19T15:42:35;24.60;82.60
4677;DHT22;2352;48.180;11.478;2023-09-19T15:45:38;24.60;78.70
4677;DHT22;2352;48.180;11.478;2023-09-19T15:48:42;24.30;77.70
4677;DHT22;2352;48.180;11.478;2023-09-19T15:51:46;24.20;78.10
4677;DHT22;2352;48.180;11.478;2023-09-19T15:54:49;24.40;79.90
4677;DHT22;2352;48.180;11.478;2023-09-19T15:57:53;24.20;76.40
4677;DHT22;2352;48.180;11.478;2023-09-19T16:00:57;24.00;76.40
4677;DHT22;2352;48.180;11.478;2023-09-19T16:04:02;24.10;78.20
4677;DHT22;2352;48.180;11.478;2023-09-19T16:07:05;24.10;78.00
4677;DHT22;2352;48.180;11.478;2023-09-19T16:10:08;24.10;77.90
4677;DHT22;2352;48.180;11.478;2023-09-19T16:13:11;24.10;77.20
4677;DHT22;2352;48.180;11.478;2023-09-19T16:16:15;24.10;76.90
4677;DHT22;2352;48.180;11.478;2023-09-19T16:19:20;23.90;77.30
4677;DHT22;2352;48.180;11.478;2023-09-19T16:22:23;23.70;78.20
4677;DHT22;2352;48.180;11.478;2023-09-19T16:25:28;23.80;80.70
4677;DHT22;2352;48.180;11.478;2023-09-19T16:28:31;23.70;80.60
4677;DHT22;2352;48.180;11.478;2023-09-19T16:31:36;23.70;80.40
4677;DHT22;2352;48.180;11.478;2023-09-19T16:34:40;23.50;81.60
4677;DHT22;2352;48.180;11.478;2023-09-19T16:37:44;23.40;81.50
4677;DHT22;2352;48.180;11.478;2023-09-19T16:40:54;23.30;83.00
4677;DHT22;2352;48.180;11.478;2023-09-19T16:43:58;23.20;82.50
4677;DHT22;2352;48.180;11.478;2023-09-19T16:47:01;23.10;84.60
4677;DHT22;2352;48.180;11.478;2023-09-19T16:50:07;23.10;83.30
4677;DHT22;2352;48.180;11.478;2023-09-19T16:53:11;23.10;83.80
4677;DHT22;2352;48.180;11.478;2023-09-19T16:56:15;22.90;83.80
4677;DHT22;2352;48.180;11.478;2023-09-19T16:59:21;22.80;85.20
4677;DHT22;2352;48.180;11.478;2023-09-19T17:02:25;22.80;84.80
4677;DHT22;2352;48.180;11.478;2023-09-19T17:05:32;22.60;86.40
4677;DHT22;2352;48.180;11.478;2023-09-19T17:08:35;22.60;87.10
4677;DHT22;2352;48.180;11.478;2023-09-19T17:11:39;22.40;87.30
4677;DHT22;2352;48.180;11.478;2023-09-19T17:14:42;22.30;87.70
4677;DHT22;2352;48.180;11.478;2023-09-19T17:17:45;22.30;88.30
4677;DHT22;2352;48.180;11.478;2023-09-19T17:20:50;22.30;88.40
4677;DHT22;2352;48.180;11.478;2023-09-19T17:23:53;22.00;90.60
4677;DHT22;2352;48.180;11.478;2023-09-19T17:26:57;21.90;90.40
4677;DHT22;2352;48.180;11.478;2023-09-19T17:30:00;21.70;91.10
4677;DHT22;2352;48.180;11.478;2023-09-19T17:33:03;21.60;91.30
4677;DHT22;2352;48.180;11.478;2023-09-19T17:36:09;21.30;92.30
4677;DHT22;2352;48.180;11.478;2023-09-19T17:39:12;21.10;93.10
4677;DHT22;2352;48.180;11.478;2023-09-19T17:42:17;20.90;93.90
4677;DHT22;2352;48.180;11.478;2023-09-19T17:45:20;20.80;93.90
4677;DHT22;2352;48.180;11.478;2023-09-19T17:48:23;20.70;94.30
4677;DHT22;2352;48.180;11.478;2023-09-19T17:51:28;20.60;94.80
4677;DHT22;2352;48.180;11.478;2023-09-19T17:54:31;20.50;95.40
4677;DHT22;2352;48.180;11.478;2023-09-19T17:57:36;20.40;95.60
4677;DHT22;2352;48.180;11.478;2023-09-19T18:00:38;20.50;95.10
4677;DHT22;2352;48.180;11.478;2023-09-19T18:03:43;20.40;95.50
4677;DHT22;2352;48.180;11.478;2023-09-19T18:06:47;20.40;95.50
4677;DHT22;2352;48.180;11.478;2023-09-19T18:09:51;20.40;95.70
4677;DHT22;2352;48.180;11.478;2023-09-19T18:12:54;20.40;96.40
4677;DHT22;2352;48.180;11.478;2023-09-19T18:15:57;20.50;96.40
4677;DHT22;2352;48.180;11.478;2023-09-19T18:19:02;20.30;95.90
4677;DHT22;2352;48.180;11.478;2023-09-19T18:22:07;20.20;96.50
4677;DHT22;2352;48.180;11.478;2023-09-19T18:25:13;20.20;97.20
4677;DHT22;2352;48.180;11.478;2023-09-19T18:28:18;20.00;97.40
4677;DHT22;2352;48.180;11.478;2023-09-19T18:31:22;20.00;97.60
4677;DHT22;2352;48.180;11.478;2023-09-19T18:34:26;19.80;98.00
4677;DHT22;2352;48.180;11.478;2023-09-19T18:37:30;19.70;97.90
4677;DHT22;2352;48.180;11.478;2023-09-19T18:40:33;19.60;98.40
4677;DHT22;2352;48.180;11.478;2023-09-19T18:43:38;19.60;98.50
4677;DHT22;2352;48.180;11.478;2023-09-19T18:46:42;19.50;98.90
4677;DHT22;2352;48.180;11.478;2023-09-19T18:49:46;19.40;99.00
4677;DHT22;2352;48.180;11.478;2023-09-19T18:52:51;19.30;99.50
4677;DHT22;2352;48.180;11.478;2023-09-19T18:56:03;19.20;99.80
4677;DHT22;2352;48.180;11.478;2023-09-19T18:59:06;19.20;99.90
4677;DHT22;2352;48.180;11.478;2023-09-19T19:02:09;19.10;99.90
4677;DHT22;2352;48.180;11.478;2023-09-19T19:05:12;19.20;99.90
4677;DHT22;2352;48.180;11.478;2023-09-19T19:08:19;19.20;99.90
4677;DHT22;2352;48.180;11.478;2023-09-19T19:11:22;19.10;99.90
4677;DHT22;2352;48.180;11.478;2023-09-19T19:14:30;19.00;99.90
4677;DHT22;2352;48.180;11.478;2023-09-19T19:17:34;18.90;99.90
4677;DHT22;2352;48.180;11.478;2023-09-19T19:20:39;18.80;99.90
4677;DHT22;2352;48.180;11.478;2023-09-19T19:23:44;18.80;99.90
4677;DHT22;2352;48.180;11.478;2023-09-19T19:26:48;18.70;99.90
4677;DHT22;2352;48.180;11.478;2023-09-19T19:29:51;18.70;99.90
4677;DHT22;2352;48.180;11.478;2023-09-19T19:32:54;18.60;99.90
4677;DHT22;2352;48.180;11.478;2023-09-19T19:36:03;18.60;99.90
4677;DHT22;2352;48.180;11.478;2023-09-19T19:39:08;18.50;99.90
4677;DHT22;2352;48.180;11.478;2023-09-19T19:42:13;18.50;99.90
4677;DHT22;2352;48.180;11.478;2023-09-19T19:45:17;18.40;99.90
4677;DHT22;2352;48.180;11.478;2023-09-19T19:48:20;18.40;99.90
4677;DHT22;2352;48.180;11.478;2023-09-19T19:51:23;18.30;99.90
4677;DHT22;2352;48.180;11.478;2023-09-19T19:54:28;18.20;99.90